createdAt,value
2023-02-03T00:01:23.782Z,-1.33
2023-02-03T00:04:26.665Z,-1.29
2023-02-03T00:07:29.954Z,-1.27
2023-02-03T00:10:35.324Z,-1.26
2023-02-03T00:13:38.402Z,-1.28
2023-02-03T00:16:41.466Z,-1.30
2023-02-03T00:19:44.489Z,-1.33
2023-02-03T00:22:47.480Z,-1.39
2023-02-03T00:25:50.809Z,-1.48
2023-02-03T00:28:54.199Z,-1.62
2023-02-03T00:31:59.166Z,-1.75
2023-02-03T00:35:02.790Z,-1.88
2023-02-03T00:38:05.773Z,-1.99
2023-02-03T00:41:08.830Z,-2.06
2023-02-03T00:44:11.919Z,-2.13
2023-02-03T00:47:14.917Z,-2.21
2023-02-03T00:50:17.950Z,-2.30
2023-02-03T00:53:20.840Z,-2.36
2023-02-03T00:56:23.819Z,-2.39
2023-02-03T00:59:27.017Z,-2.41
2023-02-03T01:02:30.345Z,-2.44
2023-02-03T01:05:33.374Z,-2.48
2023-02-03T01:08:36.399Z,-2.54
2023-02-03T01:11:39.391Z,-2.58
2023-02-03T01:14:42.369Z,-2.64
2023-02-03T01:17:45.438Z,-2.70
2023-02-03T01:20:48.412Z,-2.75
2023-02-03T01:23:52.609Z,-2.83
2023-02-03T01:26:55.572Z,-2.89
2023-02-03T01:29:58.538Z,-2.94
2023-02-03T01:33:01.570Z,-2.97
2023-02-03T01:36:04.603Z,-2.98
2023-02-03T01:39:08.337Z,-2.99
2023-02-03T01:42:16.138Z,-3.00
2023-02-03T01:45:19.687Z,-3.01
2023-02-03T01:48:22.803Z,-3.01
2023-02-03T01:51:26.176Z,-3.01
2023-02-03T01:54:37.685Z,-3.00
2023-02-03T01:57:52.720Z,-2.99
2023-02-03T02:00:57.779Z,-2.99
2023-02-03T02:04:03.179Z,-3.01
2023-02-03T02:07:07.142Z,-3.02
2023-02-03T02:10:11.199Z,-3.02
2023-02-03T02:13:17.934Z,-3.05
2023-02-03T02:17:05.691Z,-3.09
2023-02-03T02:20:24.548Z,-3.14
2023-02-03T02:23:53.622Z,-3.23
2023-02-03T02:26:59.666Z,-3.35
2023-02-03T02:30:24.419Z,-3.47
2023-02-03T02:33:42.920Z,-3.62
2023-02-03T02:37:07.402Z,-3.75
2023-02-03T02:40:24.139Z,-3.86
2023-02-03T02:43:40.123Z,-3.94
2023-02-03T02:47:02.201Z,-4.00
2023-02-03T02:50:09.016Z,-4.01
2023-02-03T02:53:15.220Z,-3.99
2023-02-03T02:56:19.795Z,-3.96
2023-02-03T02:59:22.823Z,-3.94
2023-02-03T03:02:34.066Z,-3.95
2023-02-03T03:05:37.350Z,-3.96
2023-02-03T03:08:52.791Z,-3.96
2023-02-03T03:12:05.165Z,-3.96
2023-02-03T03:15:14.748Z,-3.94
2023-02-03T03:18:31.499Z,-3.89
2023-02-03T03:21:46.316Z,-3.80
2023-02-03T03:24:55.565Z,-3.68
2023-02-03T03:28:06.112Z,-3.60
2023-02-03T03:31:09.187Z,-3.53
2023-02-03T03:34:14.257Z,-3.52
2023-02-03T03:37:46.541Z,-3.51
2023-02-03T03:40:57.758Z,-3.48
2023-02-03T03:44:06.572Z,-3.45
2023-02-03T03:47:17.873Z,-3.42
2023-02-03T03:50:29.556Z,-3.36
2023-02-03T03:53:37.021Z,-3.30
2023-02-03T03:56:58.162Z,-3.24
2023-02-03T04:00:04.322Z,-3.18
2023-02-03T04:03:21.044Z,-3.14
2023-02-03T04:06:24.207Z,-3.09
2023-02-03T04:09:27.197Z,-3.06
2023-02-03T04:12:30.165Z,-3.04
2023-02-03T04:15:34.402Z,-3.03
2023-02-03T04:18:37.500Z,-3.01
2023-02-03T04:21:40.388Z,-2.98
2023-02-03T04:24:43.474Z,-2.97
2023-02-03T04:27:46.740Z,-2.96
2023-02-03T04:30:49.806Z,-2.96
2023-02-03T04:33:52.802Z,-2.98
2023-02-03T04:36:55.780Z,-3.00
2023-02-03T04:39:58.893Z,-3.02
2023-02-03T04:43:07.912Z,-3.05
2023-02-03T04:46:11.325Z,-3.06
2023-02-03T04:49:14.317Z,-3.07
2023-02-03T04:52:17.375Z,-3.07
2023-02-03T04:55:20.382Z,-3.06
2023-02-03T04:58:23.732Z,-3.04
2023-02-03T05:01:26.770Z,-3.02
2023-02-03T05:04:29.954Z,-3.00
2023-02-03T05:07:32.929Z,-2.97
2023-02-03T05:10:35.956Z,-2.96
2023-02-03T05:13:38.852Z,-2.93
2023-02-03T05:16:41.938Z,-2.93
2023-02-03T05:19:45.212Z,-2.94
2023-02-03T05:22:48.349Z,-2.94
2023-02-03T05:25:51.380Z,-2.93
2023-02-03T05:28:56.616Z,-2.93
2023-02-03T05:32:00.433Z,-2.94
2023-02-03T05:35:03.476Z,-2.94
2023-02-03T05:38:06.697Z,-2.94
2023-02-03T05:41:30.723Z,-2.92
2023-02-03T05:44:33.780Z,-2.91
2023-02-03T05:47:36.821Z,-2.89
2023-02-03T05:50:39.825Z,-2.87
2023-02-03T05:53:42.926Z,-2.84
2023-02-03T05:56:45.854Z,-2.81
2023-02-03T05:59:49.906Z,-2.77
2023-02-03T06:02:58.489Z,-2.75
2023-02-03T06:06:01.634Z,-2.72
2023-02-03T06:09:06.905Z,-2.70
2023-02-03T06:12:09.768Z,-2.67
2023-02-03T06:15:13.186Z,-2.64
2023-02-03T06:18:16.101Z,-2.61
2023-02-03T06:21:20.452Z,-2.56
2023-02-03T06:24:23.258Z,-2.53
2023-02-03T06:27:26.487Z,-2.47
2023-02-03T06:30:29.880Z,-2.43
2023-02-03T06:33:33.389Z,-2.38
2023-02-03T06:36:36.387Z,-2.34
2023-02-03T06:39:39.361Z,-2.29
2023-02-03T06:42:46.156Z,-2.25
2023-02-03T06:45:49.141Z,-2.21
2023-02-03T06:48:52.121Z,-2.16
2023-02-03T06:51:55.238Z,-2.12
2023-02-03T06:54:58.156Z,-2.09
2023-02-03T06:58:01.161Z,-2.03
2023-02-03T07:01:04.329Z,-1.96
2023-02-03T07:04:07.224Z,-1.88
2023-02-03T07:07:10.042Z,-1.81
2023-02-03T07:10:12.920Z,-1.73
2023-02-03T07:13:15.715Z,-1.63
2023-02-03T07:16:18.730Z,-1.55
2023-02-03T07:19:21.609Z,-1.44
2023-02-03T07:22:24.471Z,-1.35
2023-02-03T07:25:27.589Z,-1.29
2023-02-03T07:28:35.208Z,-1.24
2023-02-03T07:31:38.626Z,-1.18
2023-02-03T07:34:41.616Z,-1.11
2023-02-03T07:37:44.910Z,-1.04
2023-02-03T07:40:47.803Z,-0.98
2023-02-03T07:43:50.692Z,-0.89
2023-02-03T07:46:53.554Z,-0.80
2023-02-03T07:49:56.486Z,-0.73
2023-02-03T07:53:00.225Z,-0.63
2023-02-03T07:56:05.362Z,-0.50
2023-02-03T07:59:08.543Z,-0.44
2023-02-03T08:02:14.105Z,-0.40
2023-02-03T08:05:18.587Z,-0.38
2023-02-03T08:08:21.394Z,-0.32
2023-02-03T08:11:24.202Z,-0.24
2023-02-03T08:14:27.080Z,-0.14
2023-02-03T08:17:29.911Z,-0.05
2023-02-03T08:20:32.713Z,0.05
2023-02-03T08:23:35.590Z,0.14
2023-02-03T08:26:38.991Z,0.19
2023-02-03T08:29:41.946Z,0.21
2023-02-03T08:32:44.804Z,0.28
2023-02-03T08:35:49.978Z,0.37
2023-02-03T08:38:52.942Z,0.47
2023-02-03T08:41:55.734Z,0.49
2023-02-03T08:44:59.015Z,0.43
2023-02-03T08:48:01.967Z,0.39
2023-02-03T08:51:16.061Z,0.38
2023-02-03T08:54:19.471Z,0.46
2023-02-03T08:57:22.321Z,0.61
2023-02-03T09:00:25.495Z,0.74
2023-02-03T09:03:28.531Z,0.92
2023-02-03T09:06:31.533Z,1.07
2023-02-03T09:09:37.030Z,1.15
2023-02-03T09:12:39.948Z,1.15
2023-02-03T09:15:42.752Z,1.21
2023-02-03T09:18:46.524Z,1.28
2023-02-03T09:21:49.746Z,1.32
2023-02-03T09:24:52.707Z,1.32
2023-02-03T09:27:55.711Z,1.22
2023-02-03T09:31:03.485Z,1.13
2023-02-03T09:34:06.394Z,1.05
2023-02-03T09:37:09.266Z,1.06
2023-02-03T09:40:31.103Z,1.16
2023-02-03T09:43:46.882Z,1.17
2023-02-03T09:46:55.563Z,1.13
2023-02-03T09:50:01.959Z,1.10
2023-02-03T09:53:08.112Z,1.04
2023-02-03T09:56:36.347Z,1.01
2023-02-03T09:59:40.986Z,1.01
2023-02-03T10:02:55.811Z,1.02
2023-02-03T10:06:31.824Z,1.11
2023-02-03T10:09:56.253Z,1.03
2023-02-03T10:13:10.226Z,0.95
2023-02-03T10:16:31.616Z,0.89
2023-02-03T10:19:44.575Z,0.99
2023-02-03T10:22:58.779Z,1.12
2023-02-03T10:26:09.591Z,1.17
2023-02-03T10:29:37.701Z,1.17
2023-02-03T10:32:40.489Z,1.22
2023-02-03T10:35:49.203Z,1.28
2023-02-03T10:39:24.569Z,1.41
2023-02-03T10:42:50.247Z,1.51
2023-02-03T10:45:53.293Z,1.55
2023-02-03T10:48:57.415Z,1.58
2023-02-03T10:52:05.069Z,1.63
2023-02-03T10:55:30.229Z,1.64
2023-02-03T10:58:34.600Z,1.64
2023-02-03T11:01:44.626Z,1.71
2023-02-03T11:04:47.608Z,1.73
2023-02-03T11:07:52.475Z,1.75
2023-02-03T11:11:03.255Z,1.81
2023-02-03T11:14:09.073Z,1.90
2023-02-03T11:17:19.294Z,1.96
2023-02-03T11:20:26.722Z,1.95
2023-02-03T11:23:29.992Z,1.99
2023-02-03T11:26:42.042Z,2.07
2023-02-03T11:29:48.775Z,2.12
2023-02-03T11:32:53.426Z,2.20
2023-02-03T11:35:59.232Z,2.20
2023-02-03T11:39:30.287Z,2.20
2023-02-03T11:42:36.074Z,2.23
2023-02-03T11:45:48.611Z,2.22
2023-02-03T11:49:10.435Z,2.13
2023-02-03T11:52:22.598Z,2.11
2023-02-03T11:55:54.866Z,2.13
2023-02-03T11:59:33.281Z,2.08
2023-02-03T12:02:53.532Z,2.18
2023-02-03T12:06:07.211Z,2.22
2023-02-03T12:09:22.906Z,2.24
2023-02-03T12:12:56.252Z,2.25
2023-02-03T12:16:31.991Z,2.25
2023-02-03T12:19:59.276Z,2.22
2023-02-03T12:23:05.111Z,2.21
2023-02-03T12:26:18.579Z,2.22
2023-02-03T12:29:28.473Z,2.22
2023-02-03T12:32:38.618Z,2.21
2023-02-03T12:35:52.134Z,2.17
2023-02-03T12:39:09.302Z,2.08
2023-02-03T12:42:24.527Z,2.03
2023-02-03T12:45:35.116Z,2.00
2023-02-03T12:48:44.280Z,2.00
2023-02-03T12:51:52.109Z,1.98
2023-02-03T12:55:16.325Z,1.93
2023-02-03T12:58:37.280Z,1.90
2023-02-03T13:01:51.274Z,1.86
2023-02-03T13:05:01.813Z,1.83
2023-02-03T13:08:23.600Z,1.82
2023-02-03T13:11:48.673Z,1.76
2023-02-03T13:15:16.250Z,1.75
2023-02-03T13:18:34.795Z,1.72
2023-02-03T13:21:37.801Z,1.63
2023-02-03T13:24:50.669Z,1.55
2023-02-03T13:28:06.465Z,1.44
2023-02-03T13:31:43.891Z,1.34
2023-02-03T13:35:12.979Z,1.23
2023-02-03T13:39:02.872Z,1.16
2023-02-03T13:42:20.408Z,1.07
2023-02-03T13:45:39.084Z,1.06
2023-02-03T13:48:45.855Z,1.07
2023-02-03T13:51:48.869Z,1.06
2023-02-03T13:54:51.944Z,1.06
2023-02-03T13:57:55.333Z,1.07
2023-02-03T14:01:05.493Z,1.08
2023-02-03T14:04:28.771Z,1.04
2023-02-03T14:07:35.204Z,1.04
2023-02-03T14:10:38.306Z,1.04
2023-02-03T14:13:41.364Z,1.06
2023-02-03T14:16:51.971Z,1.04
2023-02-03T14:19:56.401Z,1.07
2023-02-03T14:23:05.523Z,1.11
2023-02-03T14:26:18.131Z,1.16
2023-02-03T14:29:25.824Z,1.22
2023-02-03T14:32:48.356Z,1.29
2023-02-03T14:35:51.562Z,1.35
2023-02-03T14:38:56.649Z,1.35
2023-02-03T14:42:02.422Z,1.39
2023-02-03T14:45:14.599Z,1.46
2023-02-03T14:48:33.065Z,1.53
2023-02-03T14:51:42.214Z,1.58
2023-02-03T14:55:34.651Z,1.59
2023-02-03T14:58:46.071Z,1.63
2023-02-03T15:01:49.093Z,1.70
2023-02-03T15:05:13.136Z,1.79
2023-02-03T15:08:42.414Z,1.82
2023-02-03T15:11:45.503Z,1.82
2023-02-03T15:14:48.731Z,1.85
2023-02-03T15:17:54.417Z,1.90
2023-02-03T15:20:57.779Z,1.93
2023-02-03T15:24:00.850Z,1.91
2023-02-03T15:27:03.955Z,1.91
2023-02-03T15:30:19.574Z,1.92
2023-02-03T15:33:24.197Z,1.98
2023-02-03T15:36:39.796Z,1.95
2023-02-03T15:39:54.368Z,2.01
2023-02-03T15:43:06.604Z,2.00
2023-02-03T15:46:19.306Z,1.99
2023-02-03T15:49:40.373Z,1.96
2023-02-03T15:52:46.047Z,1.95
2023-02-03T15:55:53.412Z,1.93
2023-02-03T15:58:59.037Z,1.92
2023-02-03T16:02:15.228Z,1.86
2023-02-03T16:05:32.036Z,1.81
2023-02-03T16:08:38.807Z,1.73
2023-02-03T16:15:05.304Z,1.56
2023-02-03T16:18:18.282Z,1.57
2023-02-03T16:21:34.251Z,1.55
2023-02-03T16:24:40.652Z,1.52
2023-02-03T16:27:45.657Z,1.50
2023-02-03T16:31:20.013Z,1.48
2023-02-03T16:34:41.902Z,1.51
2023-02-03T16:38:03.467Z,1.54
2023-02-03T16:41:35.491Z,1.55
2023-02-03T16:44:57.204Z,1.54
2023-02-03T16:48:19.045Z,1.52
2023-02-03T16:51:22.034Z,1.51
2023-02-03T16:54:25.605Z,1.51
2023-02-03T16:57:28.547Z,1.50
2023-02-03T17:00:31.721Z,1.48
2023-02-03T17:03:36.306Z,1.47
2023-02-03T17:06:40.145Z,1.45
2023-02-03T17:09:43.082Z,1.45
2023-02-03T17:12:46.304Z,1.45
2023-02-03T17:15:52.891Z,1.43
2023-02-03T17:18:55.893Z,1.43
2023-02-03T17:21:58.966Z,1.42
2023-02-03T17:25:02.129Z,1.39
2023-02-03T17:28:07.237Z,1.39
2023-02-03T17:31:19.133Z,1.39
2023-02-03T17:34:22.446Z,1.38
2023-02-03T17:37:25.460Z,1.38
2023-02-03T17:53:52.634Z,1.47
2023-02-03T17:56:55.549Z,1.49
2023-02-03T17:59:59.596Z,1.53
2023-02-03T18:03:02.985Z,1.54
2023-02-03T18:06:07.392Z,1.55
2023-02-03T18:09:10.456Z,1.61
2023-02-03T18:12:13.880Z,1.65
2023-02-03T18:15:16.905Z,1.74
2023-02-03T18:18:21.626Z,1.85
2023-02-03T18:21:26.420Z,1.94
2023-02-03T18:24:30.686Z,2.03
2023-02-03T18:27:33.701Z,2.10
2023-02-03T18:30:36.840Z,2.18
2023-02-03T18:33:40.404Z,2.25
2023-02-03T18:36:43.544Z,2.29
2023-02-03T18:39:47.266Z,2.32
2023-02-03T18:42:50.254Z,2.38
2023-02-03T18:45:53.104Z,2.46
2023-02-03T18:48:56.687Z,2.50
2023-02-03T18:51:59.552Z,2.53
2023-02-03T18:55:02.667Z,2.50
2023-02-03T18:58:05.813Z,2.53
2023-02-03T19:01:08.897Z,2.48
2023-02-03T19:04:11.921Z,2.45
2023-02-03T19:07:14.927Z,2.45
2023-02-03T19:10:18.445Z,2.42
2023-02-03T19:13:22.067Z,2.36
2023-02-03T19:16:25.082Z,2.33
2023-02-03T19:19:28.279Z,2.17
2023-02-03T19:22:32.761Z,1.95
2023-02-03T19:25:36.515Z,1.72
2023-02-03T19:28:40.724Z,1.41
2023-02-03T19:31:43.976Z,1.25
2023-02-03T19:34:47.249Z,1.08
2023-02-03T19:37:50.354Z,0.99
2023-02-03T19:40:53.326Z,0.95
2023-02-03T19:43:56.729Z,0.91
2023-02-03T19:46:59.775Z,0.87
2023-02-03T19:50:02.768Z,0.84
2023-02-03T19:53:08.458Z,0.84
2023-02-03T19:56:11.622Z,0.85
2023-02-03T19:59:14.647Z,0.85
2023-02-03T20:02:17.783Z,0.86
2023-02-03T20:05:21.300Z,0.88
2023-02-03T20:08:24.456Z,0.88
2023-02-03T20:11:28.534Z,0.88
2023-02-03T20:14:32.976Z,0.89
2023-02-03T20:17:36.352Z,0.91
2023-02-03T20:20:39.409Z,0.94
2023-02-03T20:23:42.604Z,0.97
2023-02-03T20:26:45.966Z,1.01
2023-02-03T20:29:49.782Z,1.06
2023-02-03T20:32:54.950Z,1.11
2023-02-03T20:35:58.733Z,1.15
2023-02-03T20:39:01.936Z,1.16
2023-02-03T20:42:19.244Z,1.17
2023-02-03T20:45:25.003Z,1.21
2023-02-03T20:48:28.361Z,1.22
2023-02-03T20:51:32.302Z,1.26
2023-02-03T20:54:35.629Z,1.27
2023-02-03T20:57:38.669Z,1.27
2023-02-03T21:00:42.299Z,1.26
2023-02-03T21:04:04.041Z,1.25
2023-02-03T21:07:14.557Z,1.25
2023-02-03T21:10:21.153Z,1.24
2023-02-03T21:13:26.329Z,1.23
2023-02-03T21:16:39.658Z,1.20
2023-02-03T21:19:42.774Z,1.19
2023-02-03T21:22:45.788Z,1.20
2023-02-03T21:25:49.152Z,1.19
2023-02-03T21:28:57.680Z,1.17
2023-02-03T21:32:00.962Z,1.18
2023-02-03T21:35:24.563Z,1.15
2023-02-03T21:38:33.266Z,1.11
2023-02-03T21:41:36.591Z,1.07
2023-02-03T21:44:40.679Z,1.02
2023-02-03T21:47:45.581Z,0.98
2023-02-03T21:50:48.798Z,0.93
2023-02-03T21:53:55.395Z,0.89
2023-02-03T21:56:58.473Z,0.85
2023-02-03T22:00:01.492Z,0.82
2023-02-03T22:03:08.481Z,0.79
2023-02-03T22:06:19.675Z,0.76
2023-02-03T22:09:25.115Z,0.74
2023-02-03T22:12:28.034Z,0.73
2023-02-03T22:15:31.143Z,0.71
2023-02-03T22:18:34.209Z,0.70
2023-02-03T22:21:37.232Z,0.70
2023-02-03T22:24:40.109Z,0.71
2023-02-03T22:27:43.213Z,0.71
2023-02-03T22:30:46.339Z,0.74
2023-02-03T22:33:49.357Z,0.75
2023-02-03T22:36:52.292Z,0.76
2023-02-03T22:39:55.158Z,0.79
2023-02-03T22:42:58.169Z,0.79
2023-02-03T22:46:04.893Z,0.83
2023-02-03T22:49:08.104Z,0.87
2023-02-03T22:52:11.089Z,0.91
2023-02-03T22:55:13.959Z,0.98
2023-02-03T22:58:16.941Z,0.99
2023-02-03T23:01:19.904Z,0.99
2023-02-03T23:04:23.766Z,1.03
2023-02-03T23:07:26.801Z,1.05
2023-02-03T23:10:33.254Z,1.08
2023-02-03T23:13:36.287Z,1.13
2023-02-03T23:16:39.425Z,1.13
2023-02-03T23:19:42.457Z,1.12
2023-02-03T23:22:45.595Z,1.11
2023-02-03T23:25:48.489Z,1.08
2023-02-03T23:28:51.434Z,1.09
2023-02-03T23:31:54.351Z,1.11
2023-02-03T23:35:15.936Z,1.10
2023-02-03T23:38:19.114Z,1.09
2023-02-03T23:41:21.944Z,1.06
2023-02-03T23:44:24.892Z,1.07
2023-02-03T23:47:27.737Z,1.07
2023-02-03T23:50:31.074Z,1.06
2023-02-03T23:53:34.162Z,1.00
2023-02-03T23:56:37.061Z,0.99
2023-02-03T23:59:40.026Z,0.97
